Time;durP1;ratioP1;P1;durP2;ratioP2;P2;SDS_P1;SDS_P2;PMS_P1;PMS_P2;Temp;Humidity;BMP_temperature;BMP_pressure;BME280_temperature;BME280_humidity;BME280_pressure;Samples;Min_cycle;Max_cycle;Signal;HPM_P1;HPM_P2
2022/03/19 00:00:30;;;;;;;61.67;24.83;;;;;;;-145.69;84.23;73639.63;5074812;28;20195;-76
2022/03/19 00:02:56;;;;;;;63.80;26.73;;;;;;;-145.69;83.96;73647.59;5074939;28;20566;-77
2022/03/19 00:05:24;;;;;;;63.23;26.70;;;;;;;-145.69;85.19;73651.56;5073846;28;20226;-76
2022/03/19 00:07:51;;;;;;;62.20;26.00;;;;;;;-145.69;84.99;73641.63;5074449;28;20195;-77
2022/03/19 00:10:19;;;;;;;64.40;26.20;;;;;;;-145.69;84.93;73651.56;5074844;28;20206;-76
2022/03/19 00:12:46;;;;;;;69.47;27.70;;;;;;;-145.69;86.02;73663.53;5074145;28;20205;-77
2022/03/19 00:15:12;;;;;;;62.13;27.43;;;;;;;-145.69;87.06;73667.50;5074341;28;20234;-76
2022/03/19 00:17:39;;;;;;;63.07;27.43;;;;;;;-145.69;86.68;73669.50;5074745;28;20206;-77
2022/03/19 00:20:07;;;;;;;65.77;27.97;;;;;;;-145.69;87.48;73687.41;5074536;28;20202;-77
2022/03/19 00:22:36;;;;;;;63.67;28.50;;;;;;;-145.69;87.24;73691.38;5074526;28;20531;-77
2022/03/19 00:25:03;;;;;;;74.23;30.17;;;;;;;-145.69;87.08;73691.38;5074332;28;20230;-76
2022/03/19 00:27:29;;;;;;;64.40;28.47;;;;;;;-145.69;88.41;73703.34;5074122;28;20198;-77
2022/03/19 00:29:56;;;;;;;69.37;29.63;;;;;;;-145.69;88.57;73701.34;5074508;28;20203;-76
2022/03/19 00:32:23;;;;;;;73.00;30.17;;;;;;;-145.69;88.99;73711.31;5074332;28;20221;-77
2022/03/19 00:34:49;;;;;;;70.63;29.20;;;;;;;-145.69;90.29;73735.19;5074001;28;20217;-77
2022/03/19 00:37:15;;;;;;;70.00;30.50;;;;;;;-145.69;89.82;73731.22;5074368;28;20199;-77
2022/03/19 00:39:43;;;;;;;76.87;29.27;;;;;;;-145.69;89.22;73711.31;5074132;28;20557;-77
2022/03/19 00:42:10;;;;;;;70.97;30.20;;;;;;;-145.69;90.09;73729.22;5074244;28;20202;-77
2022/03/19 00:44:36;;;;;;;75.80;30.10;;;;;;;-145.69;89.35;73713.28;5074283;28;20258;-77
2022/03/19 00:47:03;;;;;;;73.53;30.70;;;;;;;-145.69;89.28;73715.28;5073838;28;20216;-77
2022/03/19 00:49:30;;;;;;;67.63;29.13;;;;;;;-145.69;90.03;73719.25;5073811;28;20206;-77
2022/03/19 00:51:57;;;;;;;69.73;30.50;;;;;;;-145.69;90.43;73729.22;5074182;28;20198;-77
2022/03/19 00:54:23;;;;;;;72.70;30.37;;;;;;;-145.69;90.85;73737.19;5073711;28;20203;-77
2022/03/19 00:56:51;;;;;;;72.00;30.67;;;;;;;-145.69;90.29;73735.19;5074040;28;20210;-77
2022/03/19 00:59:18;;;;;;;80.10;29.40;;;;;;;-145.69;91.03;73749.13;5073792;28;20282;-77
2022/03/19 01:01:44;;;;;;;69.70;32.20;;;;;;;-145.69;91.24;73739.19;5073749;28;20199;-77
2022/03/19 01:04:10;;;;;;;79.90;32.57;;;;;;;-145.69;91.49;73735.19;5073543;28;20645;-76
2022/03/19 01:06:37;;;;;;;77.82;34.05;;;;;;;-145.69;91.79;73723.25;5073449;28;20848;-77
2022/03/19 01:09:03;;;;;;;78.50;33.87;;;;;;;-145.69;93.28;73735.19;5073278;28;20205;-77
2022/03/19 01:11:30;;;;;;;79.17;33.17;;;;;;;-145.69;93.34;73739.19;5073631;28;20271;-77
2022/03/19 01:13:58;;;;;;;82.87;36.37;;;;;;;-145.69;94.28;73739.19;5073476;28;20206;-77
2022/03/19 01:16:26;;;;;;;82.97;34.10;;;;;;;-145.69;94.57;73739.19;5073452;28;20210;-77
2022/03/19 01:18:52;;;;;;;84.47;36.40;;;;;;;-145.69;94.82;73745.16;5073459;28;20202;-76
2022/03/19 01:21:19;;;;;;;88.50;35.47;;;;;;;-145.69;94.77;73733.19;5073106;28;20206;-76
2022/03/19 01:23:46;;;;;;;89.07;36.37;;;;;;;-145.69;95.90;73739.19;5067384;28;20199;-75
2022/03/19 01:26:12;;;;;;;91.30;36.10;;;;;;;-145.69;95.07;73749.13;5052977;28;20722;-77
2022/03/19 01:28:39;;;;;;;86.07;34.87;;;;;;;-145.69;95.78;73751.13;5053430;28;20194;-77
2022/03/19 01:31:07;;;;;;;88.00;35.53;;;;;;;-145.69;96.19;73747.13;5053269;28;20227;-77
2022/03/19 01:33:33;;;;;;;87.67;34.50;;;;;;;-145.69;96.07;73753.13;5058060;28;20206;-77
2022/03/19 01:36:00;;;;;;;94.30;36.80;;;;;;;-145.69;95.13;73743.16;5073122;28;20210;-77
2022/03/19 01:38:26;;;;;;;82.87;33.90;;;;;;;-145.69;95.54;73735.19;5073087;28;20209;-77
2022/03/19 01:40:53;;;;;;;80.40;34.53;;;;;;;-145.69;96.03;73743.16;5073086;28;20669;-76
2022/03/19 01:43:19;;;;;;;82.73;35.43;;;;;;;-145.69;96.04;73739.19;5072548;28;20681;-77
2022/03/19 01:45:46;;;;;;;87.87;36.17;;;;;;;-145.69;96.74;73741.16;5073146;28;20238;-77
2022/03/19 01:48:13;;;;;;;91.73;38.40;;;;;;;-145.69;97.02;73747.13;5073071;28;20237;-76
2022/03/19 01:50:40;;;;;;;94.30;36.30;;;;;;;-145.69;97.63;73745.16;5072963;28;20203;-77
2022/03/19 01:53:07;;;;;;;82.37;35.27;;;;;;;-145.69;96.86;73743.16;5073235;28;20210;-76
2022/03/19 01:55:33;;;;;;;94.17;36.60;;;;;;;-145.69;97.73;73767.06;5072989;28;20191;-77
2022/03/19 01:58:03;;;;;;;83.50;34.53;;;;;;;-145.69;97.65;73767.06;5073003;28;20679;-76
2022/03/19 02:00:29;;;;;;;82.70;34.77;;;;;;;-145.69;96.57;73757.09;5072931;28;20198;-77
2022/03/19 02:02:56;;;;;;;77.90;34.67;;;;;;;-145.69;96.78;73759.09;5073037;28;20202;-77
2022/03/19 02:05:25;;;;;;;90.00;35.47;;;;;;;-145.69;96.69;73763.06;5072384;28;20234;-77
2022/03/19 02:07:52;;;;;;;84.27;34.67;;;;;;;-145.69;96.28;73763.06;5073034;28;20195;-76
2022/03/19 02:10:21;;;;;;;83.70;34.93;;;;;;;-145.69;95.44;73755.09;5072634;28;20671;-77
2022/03/19 02:12:50;;;;;;;75.97;32.63;;;;;;;-145.69;95.53;73759.09;5072978;28;20209;-76
2022/03/19 02:15:17;;;;;;;75.70;33.40;;;;;;;-145.69;96.19;73763.06;5072122;28;20227;-76
2022/03/19 02:17:44;;;;;;;86.40;33.50;;;;;;;-145.69;95.52;73755.09;5072723;28;20207;-77
2022/03/19 02:20:11;;;;;;;77.67;31.83;;;;;;;-145.69;95.71;73771.03;5072590;28;20526;-76
2022/03/19 02:22:39;;;;;;;83.10;39.15;;;;;;;-145.69;96.54;73773.03;5072321;28;20438;-76
2022/03/19 02:27:52;;;;;;;78.13;32.20;;;;;;;-145.69;96.28;73786.97;5052595;28;20199;-76
2022/03/19 02:30:19;;;;;;;80.13;33.13;;;;;;;-145.69;96.70;73777.00;5055793;28;20199;-76
2022/03/19 02:32:49;;;;;;;72.90;31.23;;;;;;;-145.69;96.00;73769.03;5056553;28;20666;-76
2022/03/19 02:35:16;;;;;;;70.80;32.13;;;;;;;-145.69;95.19;73747.13;5056349;28;20720;-77
2022/03/19 02:37:44;;;;;;;73.87;31.10;;;;;;;-145.69;95.87;73759.09;5059591;28;20195;-77
2022/03/19 02:40:14;;;;;;;77.50;33.10;;;;;;;-145.69;95.87;73763.06;5076408;28;20206;-76
2022/03/19 02:42:40;;;;;;;82.27;31.63;;;;;;;-145.69;95.18;73741.16;5076043;28;20658;-76
2022/03/19 02:45:08;;;;;;;72.33;30.77;;;;;;;-145.69;95.83;73741.16;5076425;28;20531;-76
2022/03/19 02:47:56;;;;;;;67.30;29.90;;;;;;;-145.69;95.54;73739.19;5076431;28;20202;-76
2022/03/19 02:50:22;;;;;;;80.43;33.30;;;;;;;-145.69;95.36;73745.16;5075865;28;20195;-76
2022/03/19 02:52:48;;;;;;;83.87;32.30;;;;;;;-145.69;94.98;73741.16;5076127;28;20293;-76
2022/03/19 02:55:16;;;;;;;72.93;32.10;;;;;;;-145.69;95.58;73751.13;5075921;28;20202;-77
2022/03/19 02:57:43;;;;;;;76.17;31.97;;;;;;;-145.69;94.76;73747.13;5076379;28;20554;-76
2022/03/19 03:00:10;;;;;;;85.17;34.23;;;;;;;-145.69;95.78;73767.06;5076093;28;20210;-76
2022/03/19 03:02:36;;;;;;;86.23;34.67;;;;;;;-145.69;96.10;73769.03;5075754;28;20562;-76
2022/03/19 03:05:03;;;;;;;87.50;36.93;;;;;;;-145.69;95.89;73737.19;5075846;28;20206;-76
2022/03/19 03:07:29;;;;;;;84.27;34.50;;;;;;;-145.69;96.50;73755.09;5075827;28;20202;-76
2022/03/19 03:09:56;;;;;;;84.13;34.03;;;;;;;-145.69;95.85;73749.13;5075846;28;20206;-75
2022/03/19 03:12:24;;;;;;;84.53;35.97;;;;;;;-145.69;96.10;73743.16;5075676;28;20570;-76
2022/03/19 03:14:51;;;;;;;78.87;33.83;;;;;;;-145.69;95.81;73731.22;5075192;28;20219;-76
2022/03/19 03:17:17;;;;;;;86.10;35.27;;;;;;;-145.69;96.41;73753.13;5075771;28;20329;-76
2022/03/19 03:19:44;;;;;;;82.27;33.57;;;;;;;-145.69;96.98;73761.06;5075536;28;20561;-76
2022/03/19 03:22:10;;;;;;;90.80;36.07;;;;;;;-145.69;96.33;73759.09;5075513;28;20708;-76
2022/03/19 03:24:37;;;;;;;91.03;35.50;;;;;;;-145.69;96.00;73757.09;5075325;28;20206;-76
2022/03/19 03:27:04;;;;;;;87.23;35.50;;;;;;;-145.69;96.22;73775.00;5075278;28;20227;-76
2022/03/19 03:29:32;;;;;;;88.07;34.90;;;;;;;-145.69;96.43;73784.97;5075445;28;20207;-76
2022/03/19 03:31:58;;;;;;;79.50;33.67;;;;;;;-145.69;96.84;73790.94;5075550;28;20199;-76
2022/03/19 03:34:24;;;;;;;83.10;34.47;;;;;;;-145.69;96.71;73800.91;5062779;28;20195;-76
2022/03/19 03:36:51;;;;;;;76.77;33.00;;;;;;;-145.69;96.36;73802.88;5055249;28;20558;-75
2022/03/19 03:39:17;;;;;;;78.20;32.23;;;;;;;-145.69;95.85;73792.94;5067836;28;20202;-76
2022/03/19 03:41:44;;;;;;;75.07;31.03;;;;;;;-145.69;95.87;73812.84;5074155;28;20252;-76
2022/03/19 03:44:10;;;;;;;77.30;31.77;;;;;;;-145.69;96.00;73814.84;5075112;28;20677;-76
2022/03/19 03:46:38;;;;;;;71.83;30.60;;;;;;;-145.69;96.53;73828.78;5075203;28;20234;-76
2022/03/19 03:49:04;;;;;;;77.87;32.77;;;;;;;-145.69;96.22;73802.88;5075140;28;20202;-75
2022/03/19 03:51:31;;;;;;;93.17;33.53;;;;;;;-145.69;96.78;73802.88;5074884;28;20202;-76
2022/03/19 03:53:58;;;;;;;87.87;36.00;;;;;;;-145.69;97.01;73802.88;5075256;28;20222;-75
2022/03/19 03:56:24;;;;;;;84.30;35.27;;;;;;;-145.69;97.73;73810.84;5075167;28;20236;-76
2022/03/19 03:58:51;;;;;;;90.90;37.47;;;;;;;-145.69;98.24;73822.81;5074819;28;20203;-76
2022/03/19 04:01:17;;;;;;;99.37;37.57;;;;;;;-145.69;98.67;73822.81;5074905;28;20202;-76
2022/03/19 04:03:45;;;;;;;85.90;37.07;;;;;;;-145.69;99.97;73838.72;5074517;28;20680;-76
2022/03/19 04:06:12;;;;;;;89.30;37.07;;;;;;;-145.69;100.00;73842.72;5074434;28;20687;-76
2022/03/19 04:08:38;;;;;;;97.87;39.87;;;;;;;-145.69;100.00;73838.72;5074899;28;20211;-75
2022/03/19 04:11:05;;;;;;;103.30;46.95;;;;;;;-145.69;100.00;73818.81;5073710;28;20453;-76
2022/03/19 04:13:31;;;;;;;95.93;39.17;;;;;;;-145.69;100.00;73814.84;5074520;28;20199;-76
2022/03/19 04:15:58;;;;;;;91.33;39.67;;;;;;;-145.69;100.00;73810.84;5074155;28;20234;-76
2022/03/19 04:18:24;;;;;;;104.20;39.50;;;;;;;-145.69;100.00;73832.75;5074422;28;20195;-77
2022/03/19 04:20:52;;;;;;;95.67;38.17;;;;;;;-145.69;100.00;73824.78;5074290;28;20211;-77
2022/03/19 04:23:20;;;;;;;101.03;39.33;;;;;;;-145.69;100.00;73822.81;5074640;28;20222;-76
2022/03/19 04:25:46;;;;;;;100.00;39.57;;;;;;;-145.69;100.00;73840.72;5074082;28;20310;-76
2022/03/19 04:28:13;;;;;;;95.60;39.27;;;;;;;-145.69;100.00;73830.75;5074432;28;20209;-76
2022/03/19 04:30:41;;;;;;;98.77;41.10;;;;;;;-145.69;100.00;73820.81;5074058;28;20198;-77
2022/03/19 04:33:07;;;;;;;103.57;39.90;;;;;;;-145.69;100.00;73832.75;5074164;28;20281;-76
2022/03/19 04:38:21;;;;;;;92.80;38.30;;;;;;;-145.69;100.00;73828.78;5074034;28;20205;-76
2022/03/19 04:40:50;;;;;;;100.60;40.07;;;;;;;-145.69;100.00;73840.72;5073788;28;20199;-76
2022/03/19 04:43:17;;;;;;;95.70;38.40;;;;;;;-145.69;100.00;73830.75;5073925;28;20210;-76
2022/03/19 04:45:44;;;;;;;91.83;37.67;;;;;;;-145.69;100.00;73842.72;5073698;28;20547;-76
2022/03/19 04:48:11;;;;;;;98.93;38.37;;;;;;;-145.69;100.00;73838.72;5074024;28;20199;-76
2022/03/19 04:50:39;;;;;;;102.00;39.80;;;;;;;-145.69;100.00;73848.69;5073848;28;20214;-76
2022/03/19 04:53:07;;;;;;;93.27;38.13;;;;;;;-145.69;100.00;73860.63;5073124;28;20210;-75
2022/03/19 04:55:36;;;;;;;100.33;37.30;;;;;;;-145.69;100.00;73856.66;5073731;28;20209;-76
2022/03/19 04:58:03;;;;;;;99.00;39.37;;;;;;;-145.69;100.00;73854.66;5073558;28;20202;-76
2022/03/19 05:00:30;;;;;;;102.40;40.03;;;;;;;-145.69;100.00;73844.69;5073934;28;20198;-76
2022/03/19 05:02:57;;;;;;;101.23;40.73;;;;;;;-145.69;100.00;73850.69;5073662;28;20202;-75
2022/03/19 05:05:24;;;;;;;93.67;38.33;;;;;;;-145.69;100.00;73850.69;5073377;28;20206;-76
2022/03/19 05:07:51;;;;;;;97.57;39.27;;;;;;;-145.69;100.00;73854.66;5073384;28;20280;-75
2022/03/19 05:13:03;;;;;;;102.77;39.77;;;;;;;-145.69;100.00;73838.72;5073680;28;20210;-76
2022/03/19 05:15:30;;;;;;;90.67;37.73;;;;;;;-145.69;100.00;73844.69;5073248;28;20235;-76
2022/03/19 05:17:57;;;;;;;97.17;37.67;;;;;;;-145.69;100.00;73854.66;5073196;28;20230;-75
2022/03/19 05:20:23;;;;;;;97.60;37.53;;;;;;;-145.69;100.00;73862.63;5073115;28;20676;-76
2022/03/19 05:22:50;;;;;;;94.97;37.77;;;;;;;-145.69;100.00;73864.63;5073188;28;20209;-77
2022/03/19 05:25:16;;;;;;;96.17;39.23;;;;;;;-145.69;100.00;73874.56;5073174;28;20199;-75
2022/03/19 05:27:43;;;;;;;99.00;38.23;;;;;;;-145.69;100.00;73864.63;5073300;28;20226;-75
2022/03/19 05:30:12;;;;;;;89.00;36.17;;;;;;;-145.69;100.00;73864.63;5073200;28;20203;-76
2022/03/19 05:32:39;;;;;;;89.07;36.97;;;;;;;-145.69;100.00;73864.63;5072851;28;20199;-76
2022/03/19 05:35:06;;;;;;;86.67;36.47;;;;;;;-145.69;100.00;73846.69;5073126;28;20252;-75
2022/03/19 05:37:33;;;;;;;85.97;35.37;;;;;;;-145.69;100.00;73880.53;5071103;28;20225;-76
2022/03/19 05:40:00;;;;;;;91.63;36.97;;;;;;;-145.69;100.00;73868.59;5054203;28;20568;-76
2022/03/19 05:42:28;;;;;;;91.67;35.73;;;;;;;-145.69;100.00;73878.56;5063236;28;20646;-75
2022/03/19 05:44:55;;;;;;;83.70;37.27;;;;;;;-145.69;99.45;73846.69;5072939;28;20285;-76
2022/03/19 05:47:23;;;;;;;88.07;34.37;;;;;;;-145.69;99.29;73860.63;5072964;28;20230;-75
2022/03/19 05:49:49;;;;;;;90.10;35.53;;;;;;;-145.69;100.00;73880.53;5073002;28;20202;-76
2022/03/19 05:52:16;;;;;;;89.03;35.13;;;;;;;-145.69;99.18;73862.63;5072730;28;20565;-75
2022/03/19 05:54:42;;;;;;;91.97;35.23;;;;;;;-145.69;98.72;73870.59;5072647;28;20531;-76
2022/03/19 05:57:09;;;;;;;90.03;36.40;;;;;;;-145.69;98.30;73864.63;5073063;28;20203;-76
2022/03/19 05:59:35;;;;;;;87.93;34.90;;;;;;;-145.69;97.27;73856.66;5072938;28;20195;-76
2022/03/19 06:02:02;;;;;;;88.20;41.97;;;;;;;-145.69;96.77;73862.63;5071724;28;20441;-75
2022/03/19 06:04:30;;;;;;;88.70;36.03;;;;;;;-145.69;97.44;73878.56;5075059;28;20228;-76
2022/03/19 06:06:57;;;;;;;82.50;33.77;;;;;;;-145.69;97.25;73886.50;5076721;28;20296;-76
2022/03/19 06:09:24;;;;;;;84.23;34.77;;;;;;;-145.69;96.87;73870.59;5076832;28;20290;-75
2022/03/19 06:11:50;;;;;;;76.30;32.47;;;;;;;-145.69;95.92;73858.63;5077223;28;20207;-76
2022/03/19 06:14:17;;;;;;;77.10;31.13;;;;;;;-145.69;96.22;73860.63;5076733;28;20237;-75
2022/03/19 06:16:43;;;;;;;81.97;32.97;;;;;;;-145.69;95.61;73862.63;5076721;28;20576;-76
2022/03/19 06:19:10;;;;;;;80.90;34.47;;;;;;;-145.69;95.07;73854.66;5076445;28;20600;-76
2022/03/19 06:21:40;;;;;;;78.17;33.37;;;;;;;-145.69;94.62;73856.66;5076635;28;20333;-76
2022/03/19 06:24:07;;;;;;;75.20;31.67;;;;;;;-145.69;95.02;73862.63;5076862;28;20253;-75
2022/03/19 06:26:34;;;;;;;80.43;31.23;;;;;;;-145.69;94.33;73852.66;5076539;28;20313;-76
2022/03/19 06:29:00;;;;;;;74.57;31.53;;;;;;;-145.69;92.74;73832.75;5076469;28;20199;-76
2022/03/19 06:31:27;;;;;;;73.87;31.93;;;;;;;-145.69;92.23;73830.75;5076284;28;20596;-76
2022/03/19 06:33:53;;;;;;;74.13;31.00;;;;;;;-145.69;92.56;73834.75;5076405;28;20199;-76
2022/03/19 06:39:06;;;;;;;70.03;29.27;;;;;;;-145.69;91.56;73830.75;5076385;28;20202;-76
2022/03/19 06:41:33;;;;;;;73.17;27.90;;;;;;;-145.69;89.89;73804.88;5076275;28;20203;-75
2022/03/19 06:44:00;;;;;;;69.60;29.70;;;;;;;-145.69;89.72;73804.88;5075771;28;20195;-76
2022/03/19 06:46:26;;;;;;;67.73;29.23;;;;;;;-145.69;89.22;73798.91;5076002;28;20223;-75
2022/03/19 06:48:53;;;;;;;72.43;30.67;;;;;;;-145.69;88.02;73786.97;5075929;28;20199;-76
2022/03/19 06:51:20;;;;;;;64.73;27.33;;;;;;;-145.69;88.42;73779.00;5076070;28;20561;-76
2022/03/19 06:53:48;;;;;;;70.23;26.57;;;;;;;-145.69;86.95;73771.03;5076030;28;20238;-76
2022/03/19 06:56:16;;;;;;;69.87;26.73;;;;;;;-145.69;86.79;73757.09;5075811;28;20576;-76
2022/03/19 06:58:43;;;;;;;59.03;26.43;;;;;;;-145.69;86.91;73753.13;5076068;28;20210;-76
2022/03/19 07:01:15;;;;;;;62.80;27.00;;;;;;;-145.69;85.14;73739.19;5075980;28;20304;-77
2022/03/19 07:03:42;;;;;;;61.07;26.87;;;;;;;-145.69;84.29;73729.22;5076056;28;20199;-76
2022/03/19 07:06:08;;;;;;;61.07;25.20;;;;;;;-145.69;84.52;73723.25;5075585;28;20241;-76
2022/03/19 07:08:35;;;;;;;65.33;27.77;;;;;;;-145.69;83.37;73715.28;5075822;28;20233;-77
2022/03/19 07:11:01;;;;;;;65.50;26.83;;;;;;;-145.69;83.73;73711.31;5076068;28;20210;-76
2022/03/19 07:13:29;;;;;;;63.80;26.40;;;;;;;-145.69;82.37;73699.34;5075638;28;20205;-76
2022/03/19 07:15:55;;;;;;;60.57;25.67;;;;;;;-145.69;82.29;73677.47;5075271;28;20230;-75
2022/03/19 07:18:23;;;;;;;63.17;25.37;;;;;;;-145.69;80.78;73665.50;5075597;28;20199;-76
2022/03/19 07:20:50;;;;;;;63.90;24.83;;;;;;;-145.69;80.75;73653.56;5075682;28;20248;-76
2022/03/19 07:23:16;;;;;;;59.20;25.47;;;;;;;-145.69;81.29;73641.63;5075658;28;20294;-76
2022/03/19 07:25:44;;;;;;;53.90;23.47;;;;;;;-145.69;79.78;73643.59;5075479;28;20207;-75
2022/03/19 07:28:13;;;;;;;59.53;25.27;;;;;;;-145.69;78.70;73623.69;5075247;28;20627;-76
2022/03/19 07:30:41;;;;;;;54.67;24.67;;;;;;;-145.69;76.63;73611.75;5075391;28;20201;-77
2022/03/19 07:33:08;;;;;;;52.53;23.17;;;;;;;-145.69;77.84;73597.81;5075411;28;20294;-76
2022/03/19 07:35:36;;;;;;;51.67;24.00;;;;;;;-145.69;76.64;73587.88;5075445;28;20561;-76
2022/03/19 07:38:04;;;;;;;58.03;24.37;;;;;;;-145.69;75.89;73575.91;5075386;28;20222;-76
2022/03/19 07:43:15;;;;;;;50.50;23.27;;;;;;;-145.69;75.08;73558.00;5070470;28;20286;-77
2022/03/19 07:45:46;;;;;;;55.27;24.57;;;;;;;-145.69;75.63;73558.00;5075100;28;20253;-77
2022/03/19 07:48:12;;;;;;;51.97;24.87;;;;;;;-145.69;74.69;73534.09;5075275;28;20239;-77
2022/03/19 07:50:39;;;;;;;59.47;24.93;;;;;;;-145.69;73.43;73524.16;5075138;28;20199;-76
2022/03/19 07:53:09;;;;;;;56.17;27.98;;;;;;;-145.69;74.25;73514.19;5073935;28;20446;-76
2022/03/19 07:55:36;;;;;;;58.57;25.97;;;;;;;-145.69;72.68;73502.25;5074658;28;20195;-77
2022/03/19 07:58:03;;;;;;;56.03;25.23;;;;;;;-145.69;73.79;73500.25;5075069;28;20206;-76
2022/03/19 08:00:30;;;;;;;61.27;24.73;;;;;;;-145.69;71.79;73484.34;5074841;28;20226;-76
2022/03/19 08:02:57;;;;;;;52.57;22.53;;;;;;;-145.69;71.19;73460.44;5074711;28;20198;-77
2022/03/19 08:05:24;;;;;;;53.63;23.97;;;;;;;-145.69;69.76;73448.50;5074725;28;20256;-76
2022/03/19 08:07:51;;;;;;;55.60;23.53;;;;;;;-145.69;70.41;73456.47;5074261;28;20222;-75
2022/03/19 08:10:20;;;;;;;51.83;24.97;;;;;;;-145.69;70.26;73454.47;5074878;28;20259;-76
2022/03/19 08:12:49;;;;;;;50.33;23.37;;;;;;;-145.69;70.18;73430.56;5074675;28;20201;-76
2022/03/19 08:15:17;;;;;;;55.70;23.30;;;;;;;-145.69;68.64;73416.66;5074180;28;20630;-76
2022/03/19 08:17:45;;;;;;;51.73;24.00;;;;;;;-145.69;69.14;73408.69;5074483;28;20207;-77
2022/03/19 08:20:15;;;;;;;50.80;23.60;;;;;;;-145.69;69.58;73396.72;5059095;28;20244;-76
2022/03/19 08:22:44;;;;;;;48.90;23.77;;;;;;;-145.69;68.52;73384.78;5074613;28;20202;-76
2022/03/19 08:25:10;;;;;;;56.20;23.87;;;;;;;-145.69;68.64;73368.88;5074190;28;20667;-76
2022/03/19 08:27:37;;;;;;;56.53;25.97;;;;;;;-145.69;69.41;73396.72;5073507;28;20237;-77
2022/03/19 08:30:04;;;;;;;53.75;28.40;;;;;;;-145.69;67.70;73374.84;5073092;28;20434;-77
2022/03/19 08:32:31;;;;;;;58.70;25.60;;;;;;;-145.69;67.17;73366.88;5074217;28;20199;-77
2022/03/19 08:34:58;;;;;;;52.60;25.70;;;;;;;-145.69;65.83;73364.88;5073656;28;20654;-76
2022/03/19 08:37:26;;;;;;;53.63;24.47;;;;;;;-145.69;67.28;73358.91;5074256;28;20203;-76
2022/03/19 08:42:37;;;;;;;50.37;23.93;;;;;;;-145.69;66.11;73325.06;5074136;28;20240;-77
2022/03/19 08:45:04;;;;;;;53.27;24.53;;;;;;;-145.69;65.24;73315.13;5073846;28;20197;-77
2022/03/19 08:47:30;;;;;;;50.33;24.57;;;;;;;-145.69;68.10;73289.22;5073709;28;20230;-77
2022/03/19 08:50:00;;;;;;;57.50;26.20;;;;;;;-145.69;65.21;73275.28;5074100;28;20564;-77
2022/03/19 08:52:28;;;;;;;50.77;23.83;;;;;;;-145.69;63.43;73283.25;5073957;28;20231;-78
2022/03/19 08:54:55;;;;;;;50.27;24.17;;;;;;;-145.69;64.87;73299.19;5073962;28;20199;-78
2022/03/19 08:57:24;;;;;;;54.90;25.07;;;;;;;-145.69;63.97;73289.22;5073456;28;20248;-78
2022/03/19 08:59:50;;;;;;;55.43;25.47;;;;;;;-145.69;63.82;73285.25;5073614;28;20199;-77
2022/03/19 09:02:17;;;;;;;61.10;25.93;;;;;;;-145.69;64.01;73279.28;5073688;28;20195;-75
2022/03/19 09:04:44;;;;;;;60.93;27.77;;;;;;;-145.69;64.82;73285.25;5073471;28;20202;-77
2022/03/19 09:07:12;;;;;;;57.17;26.23;;;;;;;-145.69;63.35;73275.28;5073343;28;20214;-77
2022/03/19 09:09:41;;;;;;;59.87;27.30;;;;;;;-145.69;62.75;73275.28;5073072;28;20210;-77
2022/03/19 09:12:08;;;;;;;62.43;27.83;;;;;;;-145.69;65.19;73279.28;5073542;28;20252;-78
2022/03/19 09:14:35;;;;;;;64.97;27.97;;;;;;;-145.69;62.40;73263.34;5073129;28;20632;-76
2022/03/19 09:17:01;;;;;;;61.07;27.47;;;;;;;-145.69;63.21;73245.44;5073423;28;20198;-77
2022/03/19 09:19:28;;;;;;;57.83;26.00;;;;;;;-145.69;62.56;73229.50;5073359;28;20247;-76
2022/03/19 09:21:57;;;;;;;50.93;24.53;;;;;;;-145.69;62.20;73225.53;5073418;28;20253;-77
2022/03/19 09:24:24;;;;;;;53.33;25.07;;;;;;;-145.69;62.28;73193.66;5073394;28;20671;-78
2022/03/19 09:26:52;;;;;;;51.63;24.97;;;;;;;-145.69;62.75;73189.69;5072857;28;20274;-78
2022/03/19 09:29:18;;;;;;;56.13;25.10;;;;;;;-145.69;59.60;73209.59;5073229;28;20230;-78
2022/03/19 09:31:45;;;;;;;53.00;24.40;;;;;;;-145.69;62.05;73201.63;5073176;28;20195;-78
2022/03/19 09:34:11;;;;;;;53.80;25.37;;;;;;;-145.69;62.51;73203.63;5073164;28;20657;-80
2022/03/19 09:36:40;;;;;;;55.30;25.60;;;;;;;-145.69;61.51;73187.69;5073080;28;20693;-79
2022/03/19 09:39:07;;;;;;;53.37;24.90;;;;;;;-145.69;58.18;73183.72;5073061;28;20198;-78
2022/03/19 09:41:34;;;;;;;52.73;25.47;;;;;;;-145.69;60.20;73181.72;5072664;28;20253;-77
2022/03/19 09:44:02;;;;;;;57.07;24.43;;;;;;;-145.69;59.26;73205.63;5073231;28;20202;-77
2022/03/19 09:46:29;;;;;;;54.93;24.70;;;;;;;-145.69;58.93;73197.66;5072955;28;20237;-78
2022/03/19 09:48:56;;;;;;;52.70;23.70;;;;;;;-145.69;58.46;73175.75;5067296;28;20223;-78
2022/03/19 09:51:23;;;;;;;52.37;24.00;;;;;;;-145.69;58.48;73163.81;5053022;28;20203;-78
2022/03/19 09:53:50;;;;;;;49.47;22.83;;;;;;;-145.69;56.38;73141.91;5057398;28;20222;-78
2022/03/19 09:56:17;;;;;;;50.27;23.57;;;;;;;-145.69;56.94;73177.75;5072873;28;20207;-77
2022/03/19 09:58:43;;;;;;;47.67;23.53;;;;;;;-145.69;56.86;73195.66;5073040;28;20272;-76
2022/03/19 10:01:11;;;;;;;52.10;22.67;;;;;;;-145.69;56.79;73175.75;5072801;28;20240;-79
2022/03/19 10:03:40;;;;;;;56.27;24.97;;;;;;;-145.69;57.69;73167.78;5072985;28;20202;-78
2022/03/19 10:08:56;;;;;;;50.00;22.63;;;;;;;-145.69;55.97;73153.84;5072644;28;20249;-79
2022/03/19 10:11:25;;;;;;;47.20;22.03;;;;;;;-145.69;57.00;73114.03;5072687;28;20310;-79
2022/03/19 10:13:52;;;;;;;47.70;22.43;;;;;;;-145.69;54.18;73116.03;5072584;28;20206;-78
2022/03/19 10:16:25;;;;;;;46.30;22.20;;;;;;;-145.69;55.19;73080.19;5073039;28;20327;-77
2022/03/19 10:18:56;;;;;;;52.87;22.47;;;;;;;-145.69;53.86;73102.09;5072251;28;20198;-78
2022/03/19 10:21:23;;;;;;;53.10;23.47;;;;;;;-145.69;56.67;73074.22;5072940;28;20553;-78
2022/03/19 10:23:50;;;;;;;42.93;21.43;;;;;;;-145.69;53.91;73072.25;5072523;28;20198;-78
2022/03/19 10:26:40;;;;;;;46.63;21.33;;;;;;;-145.69;53.77;73062.28;5072841;28;20203;-79
2022/03/19 10:29:10;;;;;;;42.70;21.03;;;;;;;-145.69;54.13;73040.38;5072348;28;20222;-79
2022/03/19 10:31:43;;;;;;;50.20;22.27;;;;;;;-145.69;54.76;73030.44;5072257;28;20199;-78
2022/03/19 10:34:13;;;;;;;47.33;22.33;;;;;;;-145.69;55.15;73032.44;5072780;28;20209;-78
2022/03/19 10:36:43;;;;;;;45.07;22.77;;;;;;;-145.69;57.52;73010.53;5072513;28;20574;-79
2022/03/19 10:39:13;;;;;;;47.23;22.27;;;;;;;-145.69;53.61;72986.63;5072469;28;20198;-78
2022/03/19 10:41:48;;;;;;;45.97;21.97;;;;;;;-145.69;53.87;72994.59;5072382;28;20210;-79
2022/03/19 10:44:17;;;;;;;49.17;22.07;;;;;;;-145.69;51.83;72972.72;5052718;28;20207;-79
2022/03/19 10:46:48;;;;;;;42.13;20.07;;;;;;;-145.69;53.30;72958.78;5052524;28;20249;-78
2022/03/19 10:49:15;;;;;;;45.77;21.50;;;;;;;-145.69;51.73;72994.59;5052434;28;20246;-79
2022/03/19 10:51:44;;;;;;;45.93;21.77;;;;;;;-145.69;52.67;72966.72;5056106;28;20210;-79
2022/03/19 10:54:12;;;;;;;43.57;21.87;;;;;;;-145.69;52.07;72968.72;5058167;28;20206;-79
2022/03/19 10:56:39;;;;;;;45.80;22.43;;;;;;;-145.69;52.90;72950.81;5075950;28;20198;-79
2022/03/19 10:59:06;;;;;;;46.43;21.97;;;;;;;-145.69;51.22;72926.91;5075869;28;20556;-80
2022/03/19 11:01:35;;;;;;;47.40;21.03;;;;;;;-145.69;53.07;72901.03;5075733;28;20604;-78
2022/03/19 11:04:05;;;;;;;44.33;21.00;;;;;;;-145.69;52.36;72907.00;5075964;28;20290;-79
2022/03/19 11:06:35;;;;;;;44.37;21.03;;;;;;;-145.69;52.73;72875.16;5075264;28;20191;-78
2022/03/19 11:09:05;;;;;;;43.63;20.00;;;;;;;-145.69;51.73;72871.19;5075753;28;20226;-79
2022/03/19 11:11:36;;;;;;;46.03;21.00;;;;;;;-145.69;54.15;72891.09;5076138;28;20203;-77
2022/03/19 11:14:03;;;;;;;50.97;20.43;;;;;;;-145.69;56.79;72946.81;5075748;28;20589;-79
2022/03/19 11:16:37;;;;;;;44.13;20.90;;;;;;;-145.69;58.57;72942.84;5075774;28;20688;-77
2022/03/19 11:19:05;;;;;;;40.70;20.73;;;;;;;-145.69;58.76;72944.84;5075286;28;20202;-79